NMSU Main Campus Data

Date Time Air Temperature Relative Humidity Dewpoint Windchill Heat Index Wind Speed Wind Dir. Rain Solar Radiation
2m 2m 3m 3m
US/Mountain F % F F F MPH deg in MJ/m^2
max avg avg
2021-06-11 00:05:00 75.3 17.3 27.9 75.3 75.3 0.0 0.0 0.0 187.0 0.0 0.00 0.0000000
2021-06-11 00:10:00 75.0 17.0 27.2 75.0 75.0 0.0 0.0 0.0 173.2 0.0 0.00 0.0000000
2021-06-11 00:15:00 74.8 15.7 25.0 74.8 74.8 0.0 0.0 0.0 151.4 0.0 0.00 0.0000000
2021-06-11 00:20:00 74.1 14.5 22.7 74.1 74.1 0.0 0.0 0.0 151.5 0.0 0.00 0.0000000
2021-06-11 00:25:00 73.7 15.9 24.5 73.7 73.7 0.0 0.0 0.0 170.2 0.0 0.00 0.0000000
2021-06-11 00:30:00 73.5 19.4 29.2 73.5 73.5 0.0 0.0 0.0 188.8 0.0 0.00 0.0000000
2021-06-11 00:35:00 72.9 18.4 27.5 72.9 72.9 0.0 0.0 0.0 230.9 0.0 0.00 0.0000000
2021-06-11 00:40:00 73.3 19.5 29.2 73.3 73.3 0.0 0.0 0.0 172.3 0.0 0.00 0.0000000
2021-06-11 00:45:00 73.5 18.9 28.7 73.5 73.5 0.0 0.0 0.0 130.6 0.0 0.00 0.0000000
2021-06-11 00:50:00 73.2 19.5 29.0 73.2 73.2 0.0 0.0 0.0 211.1 0.0 0.00 0.0000000
2021-06-11 00:55:00 73.0 21.1 30.8 73.0 73.0 0.0 0.0 0.0 159.6 0.0 0.00 0.0000000
2021-06-11 01:00:00 72.1 21.3 30.3 72.1 72.1 0.0 0.0 0.0 159.6 0.0 0.00 0.0000000
2021-06-11 01:05:00 71.6 21.8 30.5 71.6 71.6 0.0 0.0 0.0 158.7 0.0 0.00 0.0000000
2021-06-11 01:10:00 71.0 22.4 30.7 71.0 71.0 0.0 0.0 0.0 103.8 0.0 0.00 0.0000000
2021-06-11 01:15:00 71.2 22.5 31.0 71.2 71.2 0.0 0.0 0.0 106.8 0.0 0.00 0.0000000
2021-06-11 01:20:00 71.1 22.3 30.6 71.1 71.1 0.0 0.0 0.0 111.4 0.0 0.00 0.0000000
2021-06-11 01:25:00 71.2 22.0 30.4 71.2 71.2 0.0 0.0 0.0 129.7 0.0 0.00 0.0000000
2021-06-11 01:30:00 71.0 22.5 30.8 71.0 71.0 0.0 0.0 0.0 194.7 0.0 0.00 0.0000000
2021-06-11 01:35:00 70.8 24.8 33.0 70.8 70.8 0.0 0.0 0.0 141.1 0.0 0.00 0.0000000
2021-06-11 01:40:00 70.5 23.4 31.4 70.5 70.5 0.0 0.0 0.0 141.8 0.0 0.00 0.0000000
2021-06-11 01:45:00 70.1 20.6 27.9 70.1 70.1 0.0 0.0 0.0 123.3 0.0 0.00 0.0000000
2021-06-11 01:50:00 70.1 21.5 29.0 70.1 70.1 0.0 0.0 0.0 142.5 0.0 0.00 0.0000000
2021-06-11 01:55:00 70.1 23.2 30.8 70.1 70.1 0.0 0.0 0.0 163.2 0.0 0.00 0.0000000
2021-06-11 02:00:00 69.9 22.3 29.6 69.9 69.9 0.0 0.0 0.0 121.4 0.0 0.00 0.0000000
2021-06-11 02:05:00 69.7 22.0 29.1 69.7 69.7 0.0 0.0 0.0 169.2 0.0 0.00 0.0000000
2021-06-11 02:10:00 69.4 22.6 29.6 69.4 69.4 0.0 0.0 0.0 160.4 0.0 0.00 0.0000000
2021-06-11 02:15:00 69.3 21.3 28.0 69.3 69.3 0.0 0.0 0.0 174.5 0.0 0.00 0.0000000
2021-06-11 02:20:00 69.6 21.7 28.8 69.6 69.6 0.0 0.0 0.0 183.2 0.0 0.00 0.0000000
2021-06-11 02:25:00 69.1 21.7 28.3 69.1 69.1 0.0 0.0 0.0 219.7 0.0 0.00 0.0000000
2021-06-11 02:30:00 69.2 20.6 27.1 69.2 69.2 0.0 0.0 0.0 159.1 0.0 0.00 0.0000000
2021-06-11 02:35:00 68.8 20.2 26.3 68.8 68.8 0.0 0.0 0.0 173.9 0.0 0.00 0.0000000
2021-06-11 02:40:00 69.2 21.2 27.8 69.2 69.2 0.0 0.0 0.0 168.0 0.0 0.00 0.0000000
2021-06-11 02:45:00 69.0 21.5 28.0 69.0 69.0 0.0 0.0 0.0 200.1 0.0 0.00 0.0000000
2021-06-11 02:50:00 68.7 22.6 29.0 68.7 68.7 0.0 0.0 0.0 175.4 0.0 0.00 0.0000000
2021-06-11 02:55:00 68.5 23.7 30.0 68.5 68.5 0.0 0.0 0.0 189.4 0.0 0.00 0.0000000
2021-06-11 03:00:00 68.2 25.3 31.3 68.2 68.2 0.0 1.7 0.5 179.3 171.0 0.00 0.0000000
2021-06-11 03:05:00 67.6 24.0 29.5 67.6 67.6 0.0 0.0 0.0 161.8 0.0 0.00 0.0000000
2021-06-11 03:10:00 67.4 22.8 28.1 67.4 67.4 0.0 0.0 0.0 142.3 0.0 0.00 0.0000000
2021-06-11 03:15:00 67.5 23.0 28.4 67.5 67.5 0.0 0.0 0.0 193.7 0.0 0.00 0.0000000
2021-06-11 03:20:00 67.3 22.2 27.4 67.3 67.3 0.0 0.0 0.0 115.9 0.0 0.00 0.0000000
2021-06-11 03:25:00 66.6 22.4 26.9 66.6 66.6 0.0 0.0 0.0 116.0 0.0 0.00 0.0000000
2021-06-11 03:30:00 66.5 22.0 26.4 66.5 66.5 0.0 0.0 0.0 298.2 0.0 0.00 0.0000000
2021-06-11 03:35:00 66.3 24.3 28.7 66.3 66.3 0.0 0.0 0.0 316.2 0.0 0.00 0.0000000
2021-06-11 03:40:00 67.5 23.6 29.0 67.5 67.5 0.0 1.2 0.4 1.8 320.7 0.00 0.0000000
2021-06-11 03:45:00 67.8 24.0 29.7 67.8 67.8 0.0 0.0 0.0 331.8 0.0 0.00 0.0000000
2021-06-11 03:50:00 68.1 25.0 30.9 68.1 68.1 3.1 3.3 1.7 325.7 326.6 0.00 0.0000000
2021-06-11 03:55:00 67.5 24.0 29.4 67.5 67.5 0.0 3.8 0.6 10.8 316.8 0.00 0.0000000
2021-06-11 04:00:00 67.7 23.0 28.5 67.7 67.7 0.0 1.5 0.3 4.8 359.8 0.00 0.0000000
2021-06-11 04:05:00 68.6 22.2 28.4 68.6 68.6 0.0 0.8 0.1 329.8 21.1 0.00 0.0000000
2021-06-11 04:10:00 68.8 21.2 27.4 68.8 68.8 1.5 1.5 0.2 315.4 325.4 0.00 0.0000000
2021-06-11 04:15:00 68.6 20.7 26.7 68.6 68.6 1.5 3.1 1.9 330.0 317.7 0.00 0.0000000
2021-06-11 04:20:00 69.1 19.3 25.4 69.1 69.1 1.7 3.1 2.0 308.2 317.8 0.00 0.0000000
2021-06-11 04:25:00 69.0 18.6 24.4 69.0 69.0 0.0 1.2 0.2 285.8 310.7 0.00 0.0000000
2021-06-11 04:30:00 68.9 18.2 23.8 68.9 68.9 0.0 0.0 0.0 274.1 0.0 0.00 0.0000000
2021-06-11 04:35:00 68.5 18.0 23.3 68.5 68.5 0.0 0.0 0.0 269.6 0.0 0.00 0.0000000
2021-06-11 04:40:00 68.5 18.9 24.4 68.5 68.5 0.0 0.0 0.0 283.7 0.0 0.00 0.0000000
2021-06-11 04:45:00 68.2 19.7 25.3 68.2 68.2 0.0 0.0 0.0 298.3 0.0 0.00 0.0000000
2021-06-11 04:50:00 68.6 19.3 25.1 68.6 68.6 0.0 0.0 0.0 302.7 0.0 0.00 0.0000000
2021-06-11 04:55:00 68.6 18.6 24.2 68.6 68.6 0.0 1.0 0.1 284.9 268.9 0.00 0.0000000
2021-06-11 05:00:00 68.6 18.0 23.3 68.6 68.6 0.0 0.0 0.0 239.2 0.0 0.00 0.0000000
2021-06-11 05:05:00 68.1 18.4 23.5 68.1 68.1 0.0 0.0 0.0 87.1 0.0 0.00 0.0000000
2021-06-11 05:10:00 67.9 20.1 25.4 67.9 67.9 0.0 0.0 0.0 304.6 0.0 0.00 0.0000000
2021-06-11 05:15:00 67.0 19.4 23.9 67.0 67.0 0.0 0.0 0.0 305.4 0.0 0.00 0.0000000
2021-06-11 05:20:00 66.9 20.7 25.3 66.9 66.9 0.0 0.0 0.0 0.0 0.0 0.00 0.0000000
2021-06-11 05:25:00 66.8 20.2 24.6 66.8 66.8 0.0 0.0 0.0 322.9 0.0 0.00 0.0000000
2021-06-11 05:30:00 66.7 22.9 27.6 66.7 66.7 0.0 0.0 0.0 302.4 0.0 0.00 0.0000000
2021-06-11 05:35:00 66.5 29.3 33.5 66.5 66.5 0.0 2.1 0.8 309.8 325.0 0.00 0.0000040
2021-06-11 05:40:00 65.7 24.8 28.7 65.7 65.7 3.5 3.8 2.4 291.7 295.3 0.00 0.0000442
2021-06-11 05:45:00 66.1 24.2 28.5 66.1 66.1 3.7 4.0 2.9 291.6 299.0 0.00 0.0001085
2021-06-11 05:50:00 66.6 21.0 25.4 66.6 66.6 1.9 3.5 1.9 309.7 316.1 0.00 0.0002753
2021-06-11 05:55:00 66.5 21.8 26.3 66.5 66.5 0.0 2.1 0.7 5.5 317.8 0.00 0.0005024
2021-06-11 06:00:00 66.5 20.4 24.6 66.5 66.5 0.0 0.0 0.0 328.6 0.0 0.00 0.0008783
2021-06-11 06:05:00 66.3 20.9 25.0 66.3 66.3 0.0 0.0 0.0 328.6 0.0 0.00 0.0015173
2021-06-11 06:10:00 65.9 20.6 24.4 65.9 65.9 0.0 0.0 0.0 319.5 0.0 0.00 0.0023252
2021-06-11 06:15:00 65.9 20.4 24.2 65.9 65.9 1.2 1.7 0.3 308.0 321.0 0.00 0.0031613
2021-06-11 06:20:00 66.1 20.8 24.7 66.1 66.1 0.0 1.7 0.6 6.2 308.4 0.00 0.0039592
2021-06-11 06:25:00 66.0 20.2 24.0 66.0 66.0 0.0 0.8 0.0 321.4 338.3 0.00 0.0049359
2021-06-11 06:30:00 66.1 20.9 24.9 66.1 66.1 0.0 0.0 0.0 321.7 0.0 0.00 0.0059006
2021-06-11 06:35:00 66.8 19.9 24.3 66.8 66.8 0.0 0.0 0.0 322.8 0.0 0.00 0.0066743
2021-06-11 06:40:00 66.9 19.5 24.0 66.9 66.9 0.8 1.2 0.4 335.2 331.8 0.00 0.0076209
2021-06-11 06:45:00 67.2 21.1 26.1 67.2 67.2 2.4 3.0 1.8 310.7 319.2 0.00 0.0080309
2021-06-11 06:50:00 67.7 24.2 29.7 67.7 67.7 1.0 3.0 1.9 308.5 315.9 0.00 0.0087525
2021-06-11 06:55:00 67.5 22.3 27.6 67.5 67.5 0.8 2.1 1.2 311.2 303.4 0.00 0.0096852
2021-06-11 07:00:00 68.0 22.9 28.7 68.0 68.0 1.3 2.6 1.0 290.3 303.0 0.00 0.0121229
2021-06-11 07:05:00 68.5 21.3 27.3 68.5 68.5 2.6 4.0 2.5 284.5 302.4 0.00 0.0105090
2021-06-11 07:10:00 68.6 19.4 25.1 68.6 68.6 2.2 4.0 2.8 306.5 314.8 0.00 0.0132943
2021-06-11 07:15:00 69.1 20.2 26.5 69.1 69.1 3.1 5.6 3.8 279.6 311.6 0.00 0.0132899
2021-06-11 07:20:00 69.7 23.2 30.5 69.7 69.7 2.2 4.4 3.4 305.1 298.7 0.00 0.0176042
2021-06-11 07:25:00 70.6 15.3 21.1 70.6 70.6 4.4 6.0 3.6 303.4 322.0 0.00 0.0201158
2021-06-11 07:30:00 71.0 15.2 21.2 71.0 71.0 1.9 4.6 2.2 312.7 323.6 0.00 0.0213648
2021-06-11 07:35:00 71.7 19.0 27.2 71.7 71.7 1.5 3.3 2.0 312.5 319.7 0.00 0.0624197
2021-06-11 07:40:00 72.2 15.6 22.8 72.2 72.2 3.3 3.3 1.9 311.5 312.3 0.00 0.0744209
2021-06-11 07:45:00 72.9 19.6 29.0 72.9 72.9 2.6 4.0 2.7 296.2 306.9 0.00 0.0798893
2021-06-11 07:50:00 73.2 16.0 24.3 73.2 73.2 4.7 4.7 3.6 277.1 291.6 0.00 0.0849824
2021-06-11 07:55:00 73.3 17.1 26.0 73.3 73.3 1.5 4.6 2.7 311.5 289.4 0.00 0.0900448
2021-06-11 08:00:00 74.1 16.0 25.1 74.1 74.1 2.8 5.1 2.3 294.9 292.7 0.00 0.0952979
2021-06-11 08:05:00 74.8 17.4 27.6 74.8 74.8 2.6 4.2 2.0 311.0 298.1 0.00 0.1005454
2021-06-11 08:10:00 74.9 17.8 28.3 74.9 74.9 3.0 3.8 2.7 313.1 305.7 0.00 0.1053860
2021-06-11 08:15:00 75.3 15.9 25.8 75.3 75.3 2.8 3.7 2.8 298.0 303.1 0.00 0.1104896
2021-06-11 08:20:00 75.8 14.6 24.3 75.8 75.8 2.8 4.9 3.2 297.4 297.8 0.00 0.1155404
2021-06-11 08:25:00 76.2 15.3 25.6 76.2 76.2 3.7 4.0 3.0 298.5 301.0 0.00 0.1208812
2021-06-11 08:30:00 76.8 15.0 25.6 76.8 76.8 4.0 5.1 3.7 310.9 301.6 0.00 0.1263198
2021-06-11 08:35:00 77.6 17.1 29.5 77.6 77.6 3.8 5.5 4.3 314.5 304.9 0.00 0.1315137
2021-06-11 08:40:00 78.7 14.2 25.8 78.7 78.7 6.2 6.9 5.5 311.6 301.0 0.00 0.1366529
2021-06-11 08:45:00 78.9 11.7 21.3 78.9 78.9 4.4 7.6 5.2 305.6 302.3 0.00 0.1415733
2021-06-11 08:50:00 80.0 10.3 19.3 80.0 80.0 5.5 7.1 4.0 298.2 305.4 0.00 0.1465975
2021-06-11 08:55:00 81.0 12.6 24.7 81.0 81.0 4.7 8.0 4.0 284.4 300.3 0.00 0.1518577
2021-06-11 09:00:00 81.6 11.9 23.9 81.6 81.6 4.9 6.0 3.6 338.2 315.2 0.00 0.1567477
2021-06-11 09:05:00 82.6 12.0 24.9 82.6 82.6 6.0 6.3 4.3 327.1 322.3 0.00 0.1566435
2021-06-11 09:10:00 83.0 15.5 31.4 83.0 83.0 4.9 7.8 5.7 328.5 311.4 0.00 0.1662282
2021-06-11 09:15:00 84.2 13.3 28.6 84.2 84.2 5.1 7.8 5.3 301.1 328.6 0.00 0.1711306
2021-06-11 09:20:00 84.4 12.4 27.1 84.4 84.4 5.1 7.2 5.0 312.4 321.1 0.00 0.1758773
2021-06-11 09:25:00 85.2 12.4 27.6 85.2 85.2 6.2 7.2 5.0 323.8 333.9 0.00 0.1810250
2021-06-11 09:30:00 85.1 9.0 20.0 85.1 85.1 3.3 7.6 5.2 330.1 329.8 0.00 0.1862711
2021-06-11 09:35:00 86.0 10.5 24.2 86.0 86.0 7.4 7.4 4.6 305.3 324.5 0.00 0.1797125
2021-06-11 09:40:00 85.2 12.3 27.6 85.2 85.2 4.4 7.8 6.0 319.3 308.9 0.00 0.1851204
2021-06-11 09:45:00 85.7 10.2 23.3 85.7 85.7 7.1 8.1 5.2 309.2 307.7 0.00 0.1954279
2021-06-11 09:50:00 86.5 9.9 23.3 86.5 86.5 6.5 7.1 5.2 315.6 325.7 0.00 0.2044959
2021-06-11 09:55:00 86.8 9.3 21.9 86.8 86.8 4.9 7.2 4.3 318.7 321.2 0.00 0.2063913
2021-06-11 10:00:00 86.8 10.1 23.9 86.8 86.8 5.3 7.1 5.4 317.1 320.6 0.00 0.2117251
2021-06-11 10:05:00 87.2 10.2 24.4 87.2 87.2 4.9 6.7 4.8 312.3 317.6 0.00 0.2156381
2021-06-11 10:10:00 87.5 11.4 27.3 87.5 87.5 4.7 7.2 4.9 5.1 320.3 0.00 0.2226724
2021-06-11 10:15:00 88.4 13.1 31.6 88.4 88.4 4.6 7.8 5.2 318.5 332.8 0.00 0.2149176
2021-06-11 10:20:00 88.6 9.4 23.6 88.6 88.6 3.1 6.7 5.2 325.9 314.6 0.00 0.2283618
2021-06-11 10:25:00 89.2 7.4 18.4 89.2 89.2 4.2 6.2 4.0 275.3 303.3 0.00 0.2313944
2021-06-11 10:30:00 89.9 9.5 24.7 89.9 89.9 8.1 8.1 3.2 303.6 290.5 0.00 0.2325736
2021-06-11 10:35:00 90.3 9.5 25.2 90.3 90.3 4.4 7.1 3.3 286.1 317.9 0.00 0.2401246
2021-06-11 10:40:00 90.9 7.0 18.4 90.9 90.9 1.7 6.0 3.5 335.0 346.1 0.00 0.2426039
2021-06-11 10:45:00 91.4 7.3 19.6 91.4 91.4 3.8 4.6 2.3 322.7 340.0 0.00 0.2467842
2021-06-11 10:50:00 91.5 9.8 26.9 91.5 91.5 3.7 3.7 2.4 324.0 314.6 0.00 0.2503253
2021-06-11 10:55:00 91.5 6.9 18.5 91.5 91.5 3.3 5.5 3.3 245.9 270.4 0.00 0.2535533
2021-06-11 11:00:00 91.6 7.5 20.6 91.6 91.6 1.3 4.4 2.5 253.3 220.7 0.00 0.2567087
2021-06-11 11:05:00 92.5 6.6 18.3 92.5 92.5 2.2 4.7 2.7 64.5 9.8 0.00 0.2604385
2021-06-11 11:10:00 92.5 7.8 22.0 92.5 92.5 1.5 5.3 3.2 274.8 291.7 0.00 0.2619639
2021-06-11 11:15:00 92.7 6.8 18.8 92.7 92.7 0.0 4.7 2.3 167.5 248.2 0.00 0.2655838
2021-06-11 11:20:00 94.0 7.0 20.5 94.0 94.0 3.1 3.5 1.7 169.9 189.3 0.00 0.2678684
2021-06-11 11:25:00 94.9 9.0 27.2 94.9 94.9 2.4 4.0 2.9 225.5 192.0 0.00 0.2711185
2021-06-11 11:30:00 96.0 6.4 19.9 96.0 96.0 3.3 3.8 2.6 117.8 153.1 0.00 0.2738183
2021-06-11 11:35:00 96.4 6.2 19.3 96.4 96.4 0.8 4.6 2.2 202.1 130.8 0.00 0.2768274
2021-06-11 11:40:00 97.1 6.1 19.7 97.1 97.1 0.0 2.4 1.4 126.3 189.2 0.00 0.2782350
2021-06-11 11:45:00 96.6 6.1 19.4 96.6 96.6 3.3 3.3 2.2 184.6 176.4 0.00 0.2809423
2021-06-11 11:50:00 96.3 7.7 24.6 96.3 96.3 2.6 4.0 2.0 133.1 158.7 0.00 0.2824926
2021-06-11 11:55:00 97.1 7.7 25.2 97.1 97.1 4.0 4.2 2.1 288.1 174.8 0.00 0.2848380
2021-06-11 12:00:00 94.9 7.0 21.3 94.9 94.9 1.5 8.1 4.5 298.1 282.1 0.00 0.2854457
2021-06-11 12:05:00 95.4 8.4 25.8 95.4 95.4 2.6 4.6 2.1 241.8 271.1 0.00 0.2858103
2021-06-11 12:10:00 96.1 7.6 24.2 96.1 96.1 4.4 4.4 2.8 224.8 284.7 0.00 0.2877353
2021-06-11 12:15:00 96.5 7.9 25.4 96.5 96.5 2.4 5.3 2.5 3.8 303.2 0.00 0.2890804
2021-06-11 12:20:00 96.4 5.9 18.3 96.4 96.4 5.3 5.5 3.5 51.4 32.5 0.00 0.2908005
2021-06-11 12:25:00 98.1 6.3 20.9 98.1 98.1 2.2 4.6 1.5 44.8 56.6 0.00 0.2911540
2021-06-11 12:30:00 98.8 5.8 19.6 98.8 98.8 4.2 4.2 1.0 245.2 149.8 0.00 0.2939994
2021-06-11 12:35:00 97.7 5.6 17.9 97.7 97.7 3.5 7.2 4.4 209.3 191.6 0.00 0.2945166
2021-06-11 12:40:00 97.8 7.1 23.6 97.8 97.8 2.6 6.5 3.3 133.4 174.7 0.00 0.2935053
2021-06-11 12:45:00 97.8 7.0 23.5 97.8 97.8 5.5 7.4 5.2 214.2 203.5 0.00 0.2936949
2021-06-11 12:50:00 97.2 9.0 29.0 97.2 97.2 7.2 8.3 4.3 334.2 252.7 0.00 0.2945243
2021-06-11 12:55:00 96.6 6.7 21.5 96.6 96.6 0.0 7.8 2.6 249.7 300.7 0.00 0.2954619
2021-06-11 13:00:00 98.0 6.2 20.7 98.0 98.0 2.6 6.3 2.9 196.6 190.2 0.00 0.2971494
2021-06-11 13:05:00 98.4 6.2 20.9 98.4 98.4 4.6 5.1 3.4 167.2 198.1 0.00 0.2984722
2021-06-11 13:10:00 98.2 5.9 19.6 98.2 98.2 3.0 4.4 2.5 193.4 185.3 0.00 0.2996126
2021-06-11 13:15:00 98.7 5.4 18.0 98.7 98.7 1.3 5.1 2.8 260.3 226.8 0.00 0.2998112
2021-06-11 13:20:00 98.7 6.0 20.5 98.7 98.7 0.0 4.7 1.5 168.1 318.8 0.00 0.2927073
2021-06-11 13:25:00 99.1 6.8 23.5 99.1 99.1 1.3 7.2 2.7 208.2 201.3 0.00 0.2922136
2021-06-11 13:30:00 98.5 5.4 17.9 98.5 98.5 1.3 4.9 2.4 321.9 258.9 0.00 0.2892299
2021-06-11 13:35:00 99.2 10.7 34.8 99.2 99.2 0.0 4.6 1.4 262.7 259.8 0.00 0.2988207
2021-06-11 13:40:00 99.8 8.7 30.0 99.8 99.8 1.3 4.6 1.9 81.0 193.0 0.00 0.2885294
2021-06-11 13:45:00 100.0 5.3 18.1 100.0 100.0 1.5 7.1 4.3 164.6 114.5 0.00 0.3058732
2021-06-11 13:50:00 100.0 5.9 20.9 100.0 100.0 3.8 5.5 2.9 142.4 184.6 0.00 0.2857903
2021-06-11 13:55:00 99.8 6.2 22.0 99.8 99.8 4.7 6.9 4.3 159.5 131.5 0.00 0.2585941
2021-06-11 14:00:00 100.0 6.2 22.2 100.0 100.0 4.0 6.5 3.5 117.9 115.5 0.00 0.2860954
2021-06-11 14:05:00 100.0 6.6 23.5 100.0 100.0 2.4 7.2 3.7 21.8 92.1 0.00 0.2940646
2021-06-11 14:10:00 101.5 6.4 23.8 101.5 101.5 4.9 4.9 3.1 170.8 116.0 0.00 0.2850605
2021-06-11 14:15:00 100.7 6.8 24.9 100.7 100.7 3.3 7.2 4.8 150.6 181.1 0.00 0.2854723
2021-06-11 14:20:00 100.2 7.0 25.2 100.2 100.2 1.7 6.2 3.9 150.9 154.1 0.00 0.2865238
2021-06-11 14:25:00 101.1 8.6 30.7 101.1 101.1 2.2 4.2 2.8 222.9 179.5 0.00 0.2869309
2021-06-11 14:30:00 101.3 6.7 24.8 101.3 101.3 2.1 8.0 3.8 156.2 200.0 0.00 0.2848026
2021-06-11 14:35:00 101.3 5.9 21.8 101.3 101.3 2.2 4.9 2.1 134.7 155.1 0.00 0.2751597
2021-06-11 14:40:00 101.9 8.7 31.5 101.9 101.9 2.4 6.0 3.3 190.0 164.1 0.00 0.2790125
2021-06-11 14:45:00 102.0 6.2 23.5 102.0 102.0 3.7 5.8 3.5 259.5 170.9 0.00 0.2781768
2021-06-11 14:50:00 101.8 6.0 22.7 101.8 101.8 5.5 6.0 4.0 94.3 132.7 0.00 0.2755130
2021-06-11 14:55:00 102.4 6.6 25.1 102.4 102.4 1.7 6.9 3.7 145.5 164.3 0.00 0.2726970
2021-06-11 15:00:00 101.2 6.1 22.6 101.2 101.2 6.9 7.4 3.8 234.0 223.2 0.00 0.2700235
2021-06-11 15:05:00 101.5 6.1 22.8 101.5 101.5 0.0 6.0 1.5 135.4 268.8 0.00 0.2666762
2021-06-11 15:10:00 102.0 6.9 26.2 102.0 102.0 3.8 6.0 3.4 216.3 162.2 0.00 0.2643196
2021-06-11 15:15:00 102.9 6.1 23.6 102.9 102.9 2.8 4.6 3.0 162.3 174.8 0.00 0.2618341
2021-06-11 15:20:00 101.9 6.3 23.8 101.9 101.9 3.1 8.7 4.1 223.3 210.7 0.00 0.2586698
2021-06-11 15:25:00 102.5 5.4 20.4 102.5 102.5 3.1 4.2 1.0 205.1 240.4 0.00 0.2575781
2021-06-11 15:30:00 102.8 7.3 28.1 102.8 102.8 0.0 3.8 1.9 187.3 220.4 0.00 0.2542570
2021-06-11 15:35:00 102.8 7.6 28.9 102.8 102.8 3.5 4.6 2.2 246.3 193.6 0.00 0.2507400
2021-06-11 15:40:00 102.4 6.0 23.1 102.4 102.4 5.3 6.3 4.4 220.5 191.6 0.00 0.2466032
2021-06-11 15:45:00 101.9 7.3 27.4 101.9 101.9 1.0 5.6 3.0 297.0 214.0 0.00 0.2434434
2021-06-11 15:50:00 102.4 6.1 23.2 102.4 102.4 4.4 7.6 3.0 182.9 206.0 0.00 0.2348721
2021-06-11 15:55:00 101.3 6.1 22.7 101.3 101.3 2.1 6.5 3.8 337.3 256.3 0.00 0.2330676
2021-06-11 16:00:00 101.9 5.4 19.9 101.9 101.9 3.5 6.7 1.8 76.9 13.1 0.00 0.2208840
2021-06-11 16:05:00 101.8 5.7 21.4 101.8 101.8 0.0 4.0 1.6 54.0 340.8 0.00 0.2193743
2021-06-11 16:10:00 103.1 6.1 23.7 103.1 103.1 3.3 4.4 2.1 107.8 110.9 0.00 0.2231027
2021-06-11 16:15:00 103.0 6.1 23.6 103.0 103.0 1.7 5.1 3.4 139.5 147.7 0.00 0.2207766
2021-06-11 16:20:00 102.7 5.8 22.5 102.7 102.7 2.1 5.1 2.6 219.3 147.7 0.00 0.2157573
2021-06-11 16:25:00 103.5 9.4 34.7 103.5 103.5 2.4 3.7 1.9 265.3 250.4 0.00 0.2103760
2021-06-11 16:30:00 102.2 5.7 21.7 102.2 102.2 3.5 6.0 3.7 13.5 343.9 0.00 0.1946246
2021-06-11 16:35:00 102.0 5.6 21.0 102.0 102.0 4.2 7.4 4.3 130.0 14.9 0.00 0.2004516
2021-06-11 16:40:00 102.7 5.5 20.9 102.7 102.7 2.2 5.1 2.8 231.1 211.4 0.00 0.2005436
2021-06-11 16:45:00 103.1 5.1 19.5 103.1 103.1 3.1 5.8 3.7 142.8 204.5 0.00 0.1942339
2021-06-11 16:50:00 103.1 5.4 20.9 103.1 103.1 3.7 5.1 2.8 234.1 165.1 0.00 0.1883772
2021-06-11 16:55:00 103.1 6.2 24.2 103.1 103.1 3.7 6.2 3.3 233.7 242.8 0.00 0.1836230
2021-06-11 17:00:00 103.5 6.9 27.3 103.5 103.5 4.0 4.0 2.7 170.9 253.0 0.00 0.1756961
2021-06-11 17:05:00 103.7 5.5 21.8 103.7 103.7 2.4 4.4 2.4 132.2 158.1 0.00 0.1666880
2021-06-11 17:10:00 103.7 7.7 30.1 103.7 103.7 1.3 4.9 2.8 170.6 148.7 0.00 0.1621072
2021-06-11 17:15:00 103.7 5.4 21.3 103.7 103.7 6.7 6.7 3.2 237.9 210.4 0.00 0.1640679
2021-06-11 17:20:00 104.0 6.0 24.2 104.0 104.0 0.0 4.6 1.8 203.5 200.4 0.00 0.1602749
2021-06-11 17:25:00 103.5 5.3 20.9 103.5 103.5 1.9 4.7 2.8 206.0 190.9 0.00 0.1490505
2021-06-11 17:30:00 102.8 6.0 23.3 102.8 102.8 4.9 7.2 4.3 188.4 196.9 0.00 0.1473661
2021-06-11 17:35:00 102.8 5.2 20.0 102.8 102.8 3.3 6.3 4.0 133.3 170.7 0.00 0.1444115
2021-06-11 17:40:00 102.6 6.1 23.6 102.6 102.6 5.5 6.7 3.6 222.4 206.4 0.00 0.1361800
2021-06-11 17:45:00 102.6 5.2 19.9 102.6 102.6 3.8 6.7 3.5 172.7 193.9 0.00 0.1222045
2021-06-11 17:50:00 103.1 6.6 25.6 103.1 103.1 2.1 5.8 3.1 263.4 228.9 0.00 0.1258463
2021-06-11 17:55:00 103.1 4.5 17.0 103.1 103.1 5.1 6.0 2.5 200.9 255.3 0.00 0.1204769
2021-06-11 18:00:00 102.5 5.8 22.2 102.5 102.5 4.2 6.2 4.0 200.7 229.4 0.00 0.1178684
2021-06-11 18:05:00 102.8 6.2 24.0 102.8 102.8 2.8 6.2 3.0 193.2 204.5 0.00 0.1138420
2021-06-11 18:10:00 102.8 4.7 17.4 102.8 102.8 3.3 7.4 3.7 175.3 199.8 0.00 0.1089600
2021-06-11 18:15:00 102.4 6.6 25.4 102.4 102.4 2.8 6.9 2.8 178.6 190.9 0.00 0.0925305
2021-06-11 18:20:00 101.4 6.7 24.9 101.4 101.4 0.8 5.5 2.9 180.2 175.2 0.00 0.0812129
2021-06-11 18:25:00 101.8 6.2 23.2 101.8 101.8 2.1 4.0 2.3 166.2 179.4 0.00 0.0890119
2021-06-11 18:30:00 102.2 6.9 26.3 102.2 102.2 2.6 4.0 2.3 167.7 185.9 0.00 0.0880712
2021-06-11 18:35:00 102.0 6.7 25.3 102.0 102.0 1.0 4.2 1.8 180.3 201.2 0.00 0.0839811
2021-06-11 18:40:00 101.9 7.1 26.5 101.9 101.9 5.1 5.1 1.9 216.9 201.1 0.00 0.0786956
2021-06-11 18:45:00 101.2 5.5 20.0 101.2 101.2 5.3 5.6 4.0 232.3 212.4 0.00 0.0733672
2021-06-11 18:50:00 101.1 6.6 24.3 101.1 101.1 3.0 6.2 4.3 230.7 222.5 0.00 0.0679952
2021-06-11 18:55:00 101.0 6.1 22.5 101.0 101.0 2.6 6.2 3.0 225.2 207.6 0.00 0.0637672
2021-06-11 19:00:00 101.0 6.8 25.0 101.0 101.0 6.0 6.0 3.2 233.4 201.0 0.00 0.0594088
2021-06-11 19:05:00 100.7 6.7 24.4 100.7 100.7 3.8 5.5 3.2 214.3 200.2 0.00 0.0547101
2021-06-11 19:10:00 100.6 7.4 26.9 100.6 100.6 2.1 5.3 2.4 200.5 213.1 0.00 0.0497848
2021-06-11 19:15:00 100.4 6.4 23.1 100.4 100.4 3.8 4.4 2.7 215.2 204.7 0.00 0.0449825
2021-06-11 19:20:00 100.1 7.2 25.9 100.1 100.1 2.1 4.4 2.9 216.9 198.1 0.00 0.0404872
2021-06-11 19:25:00 100.3 6.3 22.6 100.3 100.3 3.3 3.7 2.6 215.3 213.2 0.00 0.0361281
2021-06-11 19:30:00 99.8 7.5 26.6 99.8 99.8 1.5 4.0 2.6 204.7 218.2 0.00 0.0317485
2021-06-11 19:35:00 99.7 7.7 27.1 99.7 99.7 1.9 2.4 1.3 159.8 194.3 0.00 0.0265959
2021-06-11 19:40:00 98.9 7.9 27.1 98.9 98.9 0.0 2.2 0.7 212.5 201.2 0.00 0.0213942
2021-06-11 19:45:00 98.8 7.9 27.1 98.8 98.8 2.8 2.8 0.4 230.7 206.8 0.00 0.0167014
2021-06-11 19:50:00 98.2 8.2 27.5 98.2 98.2 1.3 3.5 2.3 225.2 203.2 0.00 0.0128555
2021-06-11 19:55:00 97.2 9.1 29.2 97.2 97.2 0.0 1.5 0.4 142.5 200.4 0.00 0.0093923
2021-06-11 20:00:00 96.8 9.8 30.8 96.8 96.8 0.0 2.1 0.3 184.0 197.4 0.00 0.0065202
2021-06-11 20:05:00 96.0 9.0 28.1 96.0 96.0 0.0 0.8 0.1 155.1 173.2 0.00 0.0040570
2021-06-11 20:10:00 94.9 9.7 29.1 94.9 94.9 0.0 0.0 0.0 156.8 0.0 0.00 0.0030488
2021-06-11 20:15:00 94.2 10.2 29.8 94.2 94.2 0.0 0.0 0.0 117.2 0.0 0.00 0.0021289
2021-06-11 20:20:00 93.3 11.6 32.2 93.3 93.3 0.0 0.0 0.0 134.8 0.0 0.00 0.0012870
2021-06-11 20:25:00 91.9 12.3 32.7 91.9 91.9 0.0 0.0 0.0 136.8 0.0 0.00 0.0007277
2021-06-11 20:30:00 91.0 12.6 32.6 91.0 91.0 0.0 0.0 0.0 104.1 0.0 0.00 0.0003629
2021-06-11 20:35:00 90.5 12.9 32.7 90.5 90.5 0.0 0.0 0.0 105.2 0.0 0.00 0.0001564
2021-06-11 20:40:00 89.9 13.5 33.4 89.9 89.9 0.0 0.0 0.0 107.2 0.0 0.00 0.0000642
2021-06-11 20:45:00 89.5 14.1 34.1 89.5 89.5 0.0 0.0 0.0 90.5 0.0 0.00 0.0000020
2021-06-11 20:50:00 89.1 14.1 33.8 89.1 89.1 0.0 0.0 0.0 139.8 0.0 0.00 0.0000000
2021-06-11 20:55:00 89.1 13.8 33.3 89.1 89.1 0.0 0.0 0.0 139.0 0.0 0.00 0.0000000
2021-06-11 21:00:00 88.3 14.3 33.6 88.3 88.3 0.0 0.0 0.0 178.0 0.0 0.00 0.0000000
2021-06-11 21:05:00 87.8 16.0 36.0 87.8 87.8 0.0 0.0 0.0 211.1 0.0 0.00 0.0000000
2021-06-11 21:10:00 86.8 15.7 34.8 86.8 86.8 0.0 0.0 0.0 137.4 0.0 0.00 0.0000000
2021-06-11 21:15:00 86.8 15.7 34.8 86.8 86.8 0.0 0.0 0.0 112.3 0.0 0.00 0.0000000
2021-06-11 21:20:00 86.1 17.6 37.1 86.1 86.1 0.0 0.0 0.0 94.2 0.0 0.00 0.0000000
2021-06-11 21:25:00 85.8 17.8 37.1 85.8 85.8 0.0 0.0 0.0 114.7 0.0 0.00 0.0000000
2021-06-11 21:30:00 85.3 18.1 37.2 85.3 85.3 0.0 0.0 0.0 125.1 0.0 0.00 0.0000000
2021-06-11 21:35:00 85.0 16.7 34.9 85.0 85.0 0.0 0.0 0.0 97.0 0.0 0.00 0.0000000
2021-06-11 21:40:00 84.7 19.4 38.4 84.7 84.7 0.0 0.0 0.0 118.1 0.0 0.00 0.0000000
2021-06-11 21:45:00 84.3 18.0 36.2 84.3 84.3 0.0 0.0 0.0 106.9 0.0 0.00 0.0000000
2021-06-11 21:50:00 84.3 19.2 37.8 84.3 84.3 0.0 0.0 0.0 124.2 0.0 0.00 0.0000000
2021-06-11 21:55:00 83.8 18.8 37.0 83.8 83.8 0.0 0.0 0.0 183.0 0.0 0.00 0.0000000
2021-06-11 22:00:00 82.9 20.6 38.4 82.9 82.9 0.0 1.0 0.1 110.8 184.1 0.00 0.0000000
2021-06-11 22:05:00 82.1 21.2 38.5 82.1 82.1 0.0 0.0 0.0 112.2 0.0 0.00 0.0000000
2021-06-11 22:10:00 81.5 21.0 37.8 81.5 81.5 0.0 0.0 0.0 123.2 0.0 0.00 0.0000000
2021-06-11 22:15:00 81.2 21.6 38.3 81.2 81.2 0.0 0.0 0.0 96.4 0.0 0.00 0.0000000
2021-06-11 22:20:00 81.8 20.9 37.9 81.8 81.8 0.0 0.0 0.0 121.5 0.0 0.00 0.0000000
2021-06-11 22:25:00 81.7 21.3 38.4 81.7 81.7 0.0 0.0 0.0 154.3 0.0 0.00 0.0000000
2021-06-11 22:30:00 81.4 21.2 38.0 81.4 81.4 0.0 0.0 0.0 152.4 0.0 0.00 0.0000000
2021-06-11 22:35:00 81.1 21.2 37.8 81.1 81.1 0.0 0.0 0.0 144.7 0.0 0.00 0.0000000
2021-06-11 22:40:00 80.5 21.0 37.0 80.5 80.5 0.8 1.5 0.3 166.7 172.3 0.00 0.0000000
2021-06-11 22:45:00 81.0 18.9 34.6 81.0 81.0 1.0 1.9 0.4 141.2 158.2 0.00 0.0000000
2021-06-11 22:50:00 80.2 22.4 38.4 80.2 80.2 0.0 1.3 0.2 163.3 197.8 0.00 0.0000000
2021-06-11 22:55:00 79.7 21.4 36.8 79.7 79.7 0.0 0.0 0.0 145.0 0.0 0.00 0.0000000
2021-06-11 23:00:00 79.5 18.7 33.3 79.5 79.5 0.0 0.0 0.0 94.5 0.0 0.00 0.0000000
2021-06-11 23:05:00 79.0 18.8 32.9 79.0 79.0 0.0 0.0 0.0 128.9 0.0 0.00 0.0000000
2021-06-11 23:10:00 79.3 18.7 33.1 79.3 79.3 0.0 0.0 0.0 195.3 0.0 0.00 0.0000000
2021-06-11 23:15:00 79.1 17.6 31.4 79.1 79.1 0.0 0.0 0.0 104.0 0.0 0.00 0.0000000
2021-06-11 23:20:00 78.9 17.2 30.7 78.9 78.9 0.0 0.0 0.0 106.1 0.0 0.00 0.0000000
2021-06-11 23:25:00 79.0 17.8 31.6 79.0 79.0 0.0 0.0 0.0 172.6 0.0 0.00 0.0000000
2021-06-11 23:30:00 78.5 17.9 31.4 78.5 78.5 0.0 0.0 0.0 166.2 0.0 0.00 0.0000000
2021-06-11 23:35:00 78.4 18.7 32.3 78.4 78.4 0.0 0.0 0.0 169.8 0.0 0.00 0.0000000
2021-06-11 23:40:00 77.8 18.8 31.9 77.8 77.8 0.0 0.0 0.0 196.7 0.0 0.00 0.0000000
2021-06-11 23:45:00 77.4 18.7 31.4 77.4 77.4 0.0 0.0 0.0 176.3 0.0 0.00 0.0000000
2021-06-11 23:50:00 76.9 18.6 31.0 76.9 76.9 0.0 0.0 0.0 176.2 0.0 0.00 0.0000000
2021-06-11 23:55:00 76.6 19.4 31.7 76.6 76.6 0.0 0.0 0.0 183.4 0.0 0.00 0.0000000
2021-06-12 00:00:00 76.6 18.7 30.9 76.6 76.6 1.2 1.2 0.2 174.3 158.4 0.00 0.0000000

Data is courtesy of the NM Climate Center. DO NOT USE IN LEGAL PROCEEDINGS.